Time;durP1;ratioP1;P1;durP2;ratioP2;P2;SDS_P1;SDS_P2;PMS_P1;PMS_P2;Temp;Humidity;BMP_temperature;BMP_pressure;BME280_temperature;BME280_humidity;BME280_pressure;Samples;Min_cycle;Max_cycle;Signal;HPM_P1;HPM_P2
2021/12/06 00:00:57;;;;;;;9.73;2.92;;;10.30;83.60;;;;;;5033099;28;20072;-69
2021/12/06 00:03:32;;;;;;;5.78;2.38;;;10.20;82.90;;;;;;5033301;28;20049;-71
2021/12/06 00:05:58;;;;;;;6.28;2.38;;;10.10;83.90;;;;;;5015502;28;20075;-69
2021/12/06 00:08:24;;;;;;;7.00;3.60;;;10.10;83.90;;;;;;5033673;28;20025;-70
2021/12/06 00:10:51;;;;;;;7.47;3.42;;;10.00;83.80;;;;;;5033336;28;20386;-72
2021/12/06 00:13:21;;;;;;;9.35;3.53;;;10.00;84.30;;;;;;5015511;28;20466;-69
2021/12/06 00:15:49;;;;;;;7.75;3.30;;;9.90;85.50;;;;;;5033327;28;20426;-70
2021/12/06 00:18:15;;;;;;;13.13;3.55;;;9.80;85.80;;;;;;5033646;28;20052;-70
2021/12/06 00:20:41;;;;;;;7.32;3.35;;;9.80;85.80;;;;;;5033347;28;20030;-72
2021/12/06 00:23:07;;;;;;;7.13;3.72;;;9.70;85.90;;;;;;5035894;28;20144;-70
2021/12/06 00:25:35;;;;;;;9.13;3.35;;;9.70;86.10;;;;;;5037301;28;20021;-69
2021/12/06 00:28:00;;;;;;;11.88;5.28;;;9.70;86.30;;;;;;5037316;28;20053;-70
2021/12/06 00:30:26;;;;;;;8.55;3.60;;;9.60;86.30;;;;;;5037427;28;20482;-71
2021/12/06 00:32:53;;;;;;;7.53;3.20;;;9.60;86.50;;;;;;5037605;28;20033;-70
2021/12/06 00:35:22;;;;;;;7.03;3.35;;;9.60;86.60;;;;;;5037400;28;20020;-71
2021/12/06 00:37:58;;;;;;;5.72;2.85;;;9.50;86.30;;;;;;5020254;28;20100;-70
2021/12/06 00:40:50;;;;;;;7.82;3.42;;;9.50;86.60;;;;;;5037175;28;20076;-69
2021/12/06 00:43:17;;;;;;;8.82;3.20;;;9.50;85.90;;;;;;5037136;28;20021;-69
2021/12/06 00:45:43;;;;;;;8.27;3.10;;;9.50;86.50;;;;;;5037066;28;20358;-71
2021/12/06 00:48:09;;;;;;;6.70;3.10;;;9.50;86.30;;;;;;5037082;28;20470;-72
2021/12/06 00:50:39;;;;;;;7.28;3.78;;;9.50;86.30;;;;;;5037067;28;20033;-70
2021/12/06 00:53:06;;;;;;;7.88;3.67;;;9.40;86.30;;;;;;5037246;28;20101;-69
2021/12/06 00:55:33;;;;;;;7.75;3.30;;;9.30;86.30;;;;;;5036716;28;20478;-71
2021/12/06 00:57:59;;;;;;;9.73;3.45;;;9.30;86.60;;;;;;5036693;28;20067;-69
2021/12/06 01:00:30;;;;;;;7.82;3.63;;;9.20;86.70;;;;;;5036532;28;20029;-70
2021/12/06 01:02:57;;;;;;;5.60;3.15;;;9.10;86.50;;;;;;5018985;28;20041;-71
2021/12/06 01:05:24;;;;;;;5.82;3.53;;;9.00;86.30;;;;;;5018858;28;20022;-71
2021/12/06 01:07:53;;;;;;;6.68;3.35;;;8.90;86.50;;;;;;5036853;28;20037;-69
2021/12/06 01:10:20;;;;;;;6.85;3.22;;;8.90;86.60;;;;;;5036487;28;20021;-70
2021/12/06 01:12:46;;;;;;;6.32;3.20;;;8.90;87.00;;;;;;5018821;28;20033;-70
2021/12/06 01:15:12;;;;;;;7.55;3.55;;;8.90;86.80;;;;;;5019175;28;20041;-70
2021/12/06 01:17:38;;;;;;;10.02;3.38;;;9.00;87.10;;;;;;5036520;28;20071;-69
2021/12/06 01:20:10;;;;;;;5.78;3.15;;;9.00;86.80;;;;;;5036408;28;20026;-69
2021/12/06 01:22:48;;;;;;;8.05;3.13;;;9.00;86.80;;;;;;5036206;28;20037;-69
2021/12/06 01:41:41;;;;;;;9.52;3.40;;;9.00;87.80;;;;;;5036370;28;20140;-69
2021/12/06 01:44:28;;;;;;;8.57;3.08;;;9.00;87.90;;;;;;5036034;28;20081;-71
2021/12/06 01:46:56;;;;;;;8.52;3.55;;;8.90;87.40;;;;;;5017934;28;20359;-72
2021/12/06 01:49:24;;;;;;;11.73;3.25;;;8.90;88.00;;;;;;5035719;28;20033;-70
2021/12/06 01:51:52;;;;;;;7.97;3.20;;;8.90;88.20;;;;;;5018211;28;20386;-71
2021/12/06 01:54:18;;;;;;;9.57;3.58;;;8.90;88.30;;;;;;5035695;28;20029;-69
2021/12/06 01:56:44;;;;;;;5.72;3.20;;;8.90;88.70;;;;;;5035692;28;20478;-70
2021/12/06 01:59:11;;;;;;;8.88;3.30;;;8.90;88.50;;;;;;5035694;28;20101;-69
2021/12/06 02:01:40;;;;;;;6.93;3.25;;;8.90;88.50;;;;;;5035408;28;20079;-69
2021/12/06 02:04:06;;;;;;;7.07;3.28;;;8.90;88.50;;;;;;5035640;28;20113;-70
2021/12/06 02:06:32;;;;;;;8.07;3.50;;;8.90;88.50;;;;;;5035366;28;20075;-69
2021/12/06 02:08:59;;;;;;;7.88;3.40;;;8.90;88.70;;;;;;5035542;28;20037;-69
2021/12/06 02:11:27;;;;;;;8.77;3.47;;;8.90;88.70;;;;;;5035366;28;20355;-70
2021/12/06 02:14:05;;;;;;;7.10;3.33;;;8.80;89.00;;;;;;5035354;28;20025;-69
2021/12/06 02:16:43;;;;;;;11.55;3.92;;;8.80;88.70;;;;;;5035394;28;20378;-68
2021/12/06 02:19:10;;;;;;;7.75;3.20;;;8.80;89.30;;;;;;5035471;28;20033;-70
2021/12/06 02:21:41;;;;;;;7.53;3.33;;;8.70;89.50;;;;;;5035392;28;20041;-69
2021/12/06 02:24:09;;;;;;;7.10;3.38;;;8.70;89.90;;;;;;5017412;28;20116;-70
2021/12/06 02:26:40;;;;;;;12.00;4.07;;;8.70;89.50;;;;;;5017286;28;20382;-69
2021/12/06 02:29:08;;;;;;;8.68;3.40;;;8.60;89.90;;;;;;5034885;28;20099;-69
2021/12/06 02:31:35;;;;;;;7.68;3.25;;;8.70;90.00;;;;;;5035036;28;20022;-69
2021/12/06 02:34:01;;;;;;;6.05;3.08;;;8.70;89.70;;;;;;5035015;28;20104;-70
2021/12/06 02:36:27;;;;;;;7.78;3.33;;;8.60;89.80;;;;;;5034917;28;20497;-70
2021/12/06 02:38:54;;;;;;;9.02;4.20;;;8.60;89.70;;;;;;5035278;28;20129;-69
2021/12/06 02:41:20;;;;;;;7.80;3.13;;;8.60;89.60;;;;;;5035068;28;20079;-70
2021/12/06 02:43:47;;;;;;;9.00;3.08;;;8.60;89.60;;;;;;5035016;28;20036;-70
2021/12/06 02:46:13;;;;;;;6.88;3.20;;;8.60;89.60;;;;;;5034117;28;20030;-69
2021/12/06 02:48:39;;;;;;;8.80;3.38;;;8.60;90.00;;;;;;5034497;28;20025;-68
2021/12/06 02:51:06;;;;;;;5.63;3.30;;;8.60;89.60;;;;;;5034473;28;20382;-70
2021/12/06 02:53:34;;;;;;;7.50;3.35;;;8.60;89.70;;;;;;5017059;28;20032;-69
2021/12/06 02:56:05;;;;;;;7.57;3.45;;;8.60;89.90;;;;;;5034462;28;20021;-69
2021/12/06 03:01:09;;;;;;;9.55;3.75;;;8.70;89.80;;;;;;5034334;28;20041;-71
2021/12/06 03:03:35;;;;;;;10.20;4.25;;;8.70;89.20;;;;;;5034218;28;20033;-70
2021/12/06 03:06:01;;;;;;;10.07;4.07;;;8.70;89.60;;;;;;5034312;28;20034;-71
2021/12/06 03:08:39;;;;;;;5.57;3.30;;;8.70;89.60;;;;;;5034545;28;20444;-70
2021/12/06 03:11:09;;;;;;;7.95;3.47;;;8.70;89.60;;;;;;5034149;28;20033;-70
2021/12/06 03:13:35;;;;;;;5.35;3.30;;;8.70;89.50;;;;;;5016502;28;20053;-69
2021/12/06 03:16:02;;;;;;;10.25;3.67;;;8.60;89.10;;;;;;5034083;28;20100;-71
2021/12/06 03:18:27;;;;;;;8.63;4.18;;;8.60;89.40;;;;;;5034139;28;20033;-69
2021/12/06 03:20:53;;;;;;;9.25;4.13;;;8.60;89.20;;;;;;5034121;28;20033;-70
2021/12/06 03:23:19;;;;;;;12.57;3.88;;;8.60;89.30;;;;;;5034166;28;20030;-70
2021/12/06 03:25:44;;;;;;;11.00;3.67;;;8.60;89.30;;;;;;5015979;28;20033;-72
2021/12/06 03:28:10;;;;;;;9.02;4.10;;;8.50;89.40;;;;;;5033710;28;20025;-72
2021/12/06 03:30:36;;;;;;;9.35;4.28;;;8.50;89.40;;;;;;5034054;28;20025;-69
2021/12/06 03:33:02;;;;;;;7.93;3.72;;;8.50;89.00;;;;;;5033924;28;20037;-70
2021/12/06 03:35:29;;;;;;;10.50;4.55;;;8.40;89.60;;;;;;5033997;28;20045;-70
2021/12/06 03:37:55;;;;;;;9.95;4.10;;;8.40;89.10;;;;;;5033876;28;20079;-70
2021/12/06 03:40:20;;;;;;;7.97;4.20;;;8.30;89.30;;;;;;5034013;28;20049;-70
2021/12/06 03:42:46;;;;;;;10.60;4.30;;;8.30;89.40;;;;;;5033874;28;20038;-69
2021/12/06 03:45:13;;;;;;;10.82;4.05;;;8.30;89.60;;;;;;5015938;28;20025;-71
2021/12/06 03:47:40;;;;;;;10.00;4.53;;;8.20;89.90;;;;;;5033470;28;20029;-70
2021/12/06 03:50:08;;;;;;;9.82;4.53;;;8.20;89.10;;;;;;5033746;28;20032;-72
2021/12/06 03:52:34;;;;;;;11.40;4.75;;;8.20;89.80;;;;;;5015788;28;20087;-70
2021/12/06 03:55:02;;;;;;;12.18;5.28;;;8.10;90.30;;;;;;5034437;28;20425;-70
2021/12/06 03:57:28;;;;;;;9.52;4.88;;;8.10;90.10;;;;;;5034120;28;20022;-69
2021/12/06 03:59:54;;;;;;;14.02;4.82;;;8.10;90.10;;;;;;5016077;28;20481;-70
2021/12/06 04:02:24;;;;;;;8.32;4.50;;;8.00;90.10;;;;;;5033412;28;20045;-71
2021/12/06 04:04:51;;;;;;;10.48;4.22;;;8.00;90.40;;;;;;5015853;28;20029;-71
2021/12/06 04:07:18;;;;;;;11.55;4.60;;;8.00;90.40;;;;;;5033224;28;20096;-69
2021/12/06 04:09:44;;;;;;;11.02;5.00;;;8.00;90.70;;;;;;5033655;28;20025;-73
2021/12/06 04:12:10;;;;;;;9.10;4.75;;;8.00;90.50;;;;;;5033629;28;20043;-68
2021/12/06 04:14:38;;;;;;;7.05;4.80;;;8.00;90.70;;;;;;5033155;28;20030;-71
2021/12/06 04:17:05;;;;;;;9.27;4.10;;;8.00;90.60;;;;;;5033256;28;20097;-72
2021/12/06 04:19:31;;;;;;;8.98;4.78;;;7.90;90.70;;;;;;5033396;28;20029;-71
2021/12/06 04:21:57;;;;;;;9.38;4.43;;;7.90;90.70;;;;;;5033219;28;20034;-70
2021/12/06 04:24:23;;;;;;;9.60;4.80;;;7.90;90.70;;;;;;5033345;28;20100;-71
2021/12/06 04:26:49;;;;;;;10.65;4.63;;;8.00;90.70;;;;;;5033156;28;20117;-71
2021/12/06 04:29:16;;;;;;;7.25;4.85;;;8.10;90.50;;;;;;5033176;28;20100;-70
2021/12/06 04:31:46;;;;;;;8.38;4.47;;;8.10;90.50;;;;;;5033181;28;20103;-69
2021/12/06 04:34:12;;;;;;;9.18;4.93;;;8.10;90.20;;;;;;5033037;28;20442;-70
2021/12/06 04:36:41;;;;;;;9.93;5.13;;;8.10;90.30;;;;;;5033133;28;20040;-71
2021/12/06 04:39:09;;;;;;;10.27;4.70;;;8.00;90.40;;;;;;5033127;28;20025;-70
2021/12/06 04:41:35;;;;;;;9.35;5.13;;;8.00;90.50;;;;;;5033154;28;20429;-71
2021/12/06 04:44:01;;;;;;;8.75;4.90;;;8.00;90.50;;;;;;5015384;28;20053;-70
2021/12/06 04:46:27;;;;;;;8.65;4.20;;;7.90;90.40;;;;;;5032919;28;20037;-68
2021/12/06 04:48:53;;;;;;;10.88;4.93;;;8.00;90.50;;;;;;5032893;28;20481;-70
2021/12/06 04:51:19;;;;;;;9.55;4.95;;;8.00;90.60;;;;;;5015100;28;20079;-72
2021/12/06 04:53:45;;;;;;;11.55;5.40;;;8.00;90.60;;;;;;5015203;28;20116;-70
2021/12/06 04:56:20;;;;;;;11.52;5.03;;;8.00;90.60;;;;;;5015099;28;20033;-69
2021/12/06 04:59:29;;;;;;;9.15;4.90;;;7.90;90.10;;;;;;5033009;28;20478;-70
2021/12/06 05:02:00;;;;;;;11.65;4.85;;;8.00;90.10;;;;;;4972050;28;20042;-71
2021/12/06 05:04:31;;;;;;;8.82;4.57;;;8.00;90.50;;;;;;4972216;28;20498;-71
2021/12/06 05:07:23;;;;;;;8.80;4.57;;;8.00;90.50;;;;;;5006605;28;20042;-69
2021/12/06 05:09:49;;;;;;;8.80;4.72;;;8.00;90.60;;;;;;5012146;28;20037;-72
2021/12/06 05:12:17;;;;;;;9.68;4.13;;;8.00;90.40;;;;;;5018651;28;20090;-71
2021/12/06 05:14:43;;;;;;;9.55;4.53;;;8.00;90.30;;;;;;5036428;28;20025;-70
2021/12/06 05:17:09;;;;;;;9.52;4.65;;;8.00;90.10;;;;;;5036404;28;20373;-71
2021/12/06 05:19:35;;;;;;;7.70;4.20;;;8.00;90.00;;;;;;5036380;28;20029;-70
2021/12/06 05:22:02;;;;;;;10.43;4.35;;;8.00;90.20;;;;;;5036198;28;20120;-70
2021/12/06 05:24:27;;;;;;;8.30;4.32;;;7.90;90.20;;;;;;5036070;28;20021;-70
2021/12/06 05:26:53;;;;;;;8.95;4.22;;;7.90;89.80;;;;;;5036245;28;20509;-69
2021/12/06 05:29:26;;;;;;;7.78;3.90;;;8.00;90.10;;;;;;5036051;28;20060;-69
2021/12/06 05:31:56;;;;;;;9.52;4.55;;;8.00;90.10;;;;;;5036300;28;20075;-68
2021/12/06 05:34:39;;;;;;;9.35;4.18;;;8.00;90.10;;;;;;5036225;28;20021;-71
2021/12/06 05:37:11;;;;;;;6.82;4.20;;;8.10;90.10;;;;;;5036030;28;20041;-70
2021/12/06 05:39:37;;;;;;;8.13;3.95;;;8.10;90.00;;;;;;5035806;28;20017;-69
2021/12/06 05:42:06;;;;;;;7.65;4.50;;;8.20;90.00;;;;;;5035932;28;20100;-70
2021/12/06 05:44:33;;;;;;;8.38;4.05;;;8.10;89.00;;;;;;5036135;28;20470;-70
2021/12/06 05:47:00;;;;;;;7.75;4.40;;;8.00;89.30;;;;;;5035803;28;20033;-71
2021/12/06 05:49:27;;;;;;;8.27;4.05;;;8.00;89.60;;;;;;5018029;28;20545;-70
2021/12/06 05:51:53;;;;;;;7.03;3.92;;;8.00;89.80;;;;;;5035590;28;20038;-71
2021/12/06 05:54:19;;;;;;;7.55;4.10;;;8.00;89.50;;;;;;5035626;28;20028;-69
2021/12/06 05:56:45;;;;;;;9.23;3.83;;;8.00;89.30;;;;;;5035681;28;20087;-72
2021/12/06 05:59:12;;;;;;;8.68;4.00;;;7.90;89.30;;;;;;5035776;28;20052;-75
2021/12/06 06:01:39;;;;;;;6.97;3.50;;;7.90;89.50;;;;;;5018030;28;20038;-73
2021/12/06 06:04:12;;;;;;;7.95;4.32;;;7.90;89.50;;;;;;5017792;28;20034;-78
2021/12/06 06:06:38;;;;;;;8.73;3.03;;;8.00;89.70;;;;;;5035440;28;20367;-74
2021/12/06 06:09:06;;;;;;;7.55;4.03;;;8.00;89.40;;;;;;5035397;28;20032;-71
2021/12/06 06:11:36;;;;;;;12.35;4.90;;;8.00;88.30;;;;;;5035553;28;20029;-72
2021/12/06 06:14:04;;;;;;;7.60;4.47;;;8.00;89.50;;;;;;5035581;28;20378;-77
2021/12/06 06:16:36;;;;;;;9.60;4.38;;;8.10;89.80;;;;;;5035073;28;20079;-74
2021/12/06 06:19:04;;;;;;;12.85;4.38;;;8.00;88.50;;;;;;5034675;28;20017;-75
2021/12/06 06:21:30;;;;;;;8.05;4.20;;;8.00;89.70;;;;;;5034748;28;20033;-70
2021/12/06 06:23:56;;;;;;;9.75;4.68;;;8.00;89.10;;;;;;5035360;28;20028;-74
2021/12/06 06:26:22;;;;;;;8.93;4.07;;;8.10;89.50;;;;;;5035612;28;20484;-69
2021/12/06 06:28:48;;;;;;;8.70;4.05;;;8.00;89.60;;;;;;5016880;28;20077;-70
2021/12/06 06:31:15;;;;;;;8.90;4.00;;;8.10;89.80;;;;;;5034842;28;20033;-72
2021/12/06 06:33:41;;;;;;;9.10;4.00;;;8.10;89.20;;;;;;5034770;28;20108;-71
2021/12/06 06:36:07;;;;;;;8.75;4.20;;;8.00;88.90;;;;;;5034955;28;20476;-73
2021/12/06 06:38:34;;;;;;;8.30;4.05;;;8.00;89.00;;;;;;5034789;28;20022;-75
2021/12/06 06:41:00;;;;;;;11.32;4.25;;;8.00;88.10;;;;;;5016659;28;20022;-69
2021/12/06 06:43:26;;;;;;;12.60;4.18;;;8.00;89.10;;;;;;5000551;28;20033;-76
2021/12/06 06:45:52;;;;;;;9.80;4.18;;;7.90;88.90;;;;;;5017448;28;20021;-70
2021/12/06 06:48:19;;;;;;;11.52;4.65;;;7.80;88.80;;;;;;5017056;28;20032;-73
2021/12/06 06:50:45;;;;;;;8.70;4.65;;;7.90;88.50;;;;;;5034305;28;20076;-73
2021/12/06 06:53:11;;;;;;;8.18;4.82;;;7.90;89.40;;;;;;5034503;28;20079;-73
2021/12/06 06:55:37;;;;;;;12.13;4.15;;;8.00;89.20;;;;;;5034315;28;20104;-71
2021/12/06 06:58:03;;;;;;;13.73;4.18;;;8.10;89.30;;;;;;5034412;28;20060;-71
2021/12/06 07:00:37;;;;;;;11.48;5.20;;;8.10;88.80;;;;;;5034092;28;20431;-71
2021/12/06 07:03:04;;;;;;;9.65;4.57;;;8.10;89.50;;;;;;5016541;28;20105;-70
2021/12/06 07:05:30;;;;;;;12.57;4.57;;;8.10;89.00;;;;;;5034004;28;20096;-70
2021/12/06 07:07:57;;;;;;;10.35;4.18;;;8.00;88.70;;;;;;5016457;28;20219;-71
2021/12/06 07:10:23;;;;;;;8.02;4.00;;;8.10;88.80;;;;;;5034175;28;20469;-70
2021/12/06 07:12:52;;;;;;;12.93;4.10;;;8.00;88.80;;;;;;5034141;28;20419;-72
2021/12/06 07:15:22;;;;;;;13.68;4.80;;;8.00;88.60;;;;;;5016205;28;20096;-72
2021/12/06 07:17:48;;;;;;;12.80;4.13;;;8.10;89.40;;;;;;5016391;28;20025;-71
2021/12/06 07:20:15;;;;;;;10.40;4.28;;;8.10;89.30;;;;;;5033993;28;20030;-70
2021/12/06 07:22:41;;;;;;;10.80;4.38;;;8.20;89.00;;;;;;5034168;28;20037;-72
2021/12/06 07:25:08;;;;;;;9.18;4.15;;;8.20;88.80;;;;;;5033640;28;20124;-70
2021/12/06 07:27:34;;;;;;;9.18;4.07;;;8.20;88.20;;;;;;4999466;28;20033;-72
2021/12/06 07:30:00;;;;;;;10.93;4.18;;;8.10;88.30;;;;;;5033540;28;20042;-72
2021/12/06 07:32:26;;;;;;;9.48;3.70;;;8.10;88.20;;;;;;5033382;28;20024;-74
2021/12/06 07:34:52;;;;;;;9.10;4.07;;;8.10;88.10;;;;;;5033409;28;20554;-72
2021/12/06 07:37:18;;;;;;;10.82;4.28;;;8.10;87.80;;;;;;5033481;28;20104;-71
2021/12/06 07:39:44;;;;;;;11.32;4.05;;;8.10;88.00;;;;;;5015509;28;20032;-71
2021/12/06 07:42:12;;;;;;;10.05;4.63;;;8.20;87.90;;;;;;5033603;28;20037;-70
2021/12/06 07:44:42;;;;;;;9.63;4.13;;;8.30;88.10;;;;;;5033336;28;20029;-72
2021/12/06 07:47:10;;;;;;;12.05;4.65;;;8.30;87.40;;;;;;5015608;28;20026;-69
2021/12/06 07:49:37;;;;;;;14.93;4.05;;;8.30;87.30;;;;;;5015423;28;20470;-72
2021/12/06 07:52:04;;;;;;;15.95;4.30;;;8.30;87.40;;;;;;5033303;28;20084;-70
2021/12/06 07:54:31;;;;;;;8.93;3.33;;;8.30;87.10;;;;;;5033854;28;20060;-71
2021/12/06 07:56:56;;;;;;;9.45;4.15;;;8.30;87.10;;;;;;5033125;28;20040;-72
2021/12/06 07:59:22;;;;;;;10.48;4.22;;;8.20;87.20;;;;;;5033278;28;20025;-70
2021/12/06 08:01:48;;;;;;;11.98;4.60;;;8.20;87.10;;;;;;5015153;28;20044;-70
2021/12/06 08:04:14;;;;;;;8.48;3.75;;;8.20;86.90;;;;;;5015295;28;20030;-72
2021/12/06 08:06:39;;;;;;;12.02;4.93;;;8.10;87.00;;;;;;5032833;28;20451;-71
2021/12/06 08:09:06;;;;;;;11.38;4.53;;;8.20;86.90;;;;;;5033323;28;20030;-70
2021/12/06 08:11:33;;;;;;;8.57;3.95;;;8.10;86.30;;;;;;5033013;28;20033;-71
2021/12/06 08:14:00;;;;;;;9.25;5.07;;;8.10;87.10;;;;;;5033066;28;20489;-73
2021/12/06 08:16:32;;;;;;;17.05;4.68;;;8.20;87.20;;;;;;5032877;28;20029;-74
2021/12/06 08:19:02;;;;;;;11.68;4.10;;;8.20;86.00;;;;;;5033059;28;20029;-72
2021/12/06 08:21:29;;;;;;;11.20;4.15;;;8.20;86.50;;;;;;5033087;28;20142;-76
2021/12/06 08:23:57;;;;;;;11.40;4.32;;;8.20;86.90;;;;;;5015365;28;20056;-75
2021/12/06 08:26:26;;;;;;;12.27;4.60;;;8.30;86.90;;;;;;5032912;28;20030;-73
2021/12/06 08:28:53;;;;;;;9.57;4.13;;;8.40;86.70;;;;;;5011726;28;20045;-76
2021/12/06 08:31:22;;;;;;;12.98;4.05;;;8.50;86.60;;;;;;5013391;28;20062;-72
2021/12/06 08:33:49;;;;;;;8.30;4.10;;;8.60;85.80;;;;;;5013072;28;20084;-73
2021/12/06 08:36:17;;;;;;;12.88;4.70;;;8.60;85.70;;;;;;5013129;28;20026;-75
2021/12/06 08:38:44;;;;;;;9.93;4.13;;;8.60;85.80;;;;;;5013145;28;20026;-75
2021/12/06 08:41:12;;;;;;;10.68;3.80;;;8.60;85.90;;;;;;5013121;28;20113;-72
2021/12/06 08:43:39;;;;;;;12.60;4.43;;;8.60;85.70;;;;;;5014939;28;20022;-70
2021/12/06 08:46:12;;;;;;;12.00;4.55;;;8.60;85.30;;;;;;5017451;28;20062;-75
2021/12/06 08:48:41;;;;;;;12.40;4.43;;;8.60;85.00;;;;;;5017213;28;20025;-74
2021/12/06 08:51:22;;;;;;;12.57;4.88;;;8.70;85.60;;;;;;5017458;28;20018;-71
2021/12/06 08:53:50;;;;;;;8.90;4.00;;;8.70;86.10;;;;;;5017373;28;20025;-70
2021/12/06 08:56:16;;;;;;;11.40;4.25;;;8.80;85.50;;;;;;5016773;28;20091;-71
2021/12/06 08:58:43;;;;;;;9.70;4.40;;;8.80;85.00;;;;;;5016394;28;20037;-71
2021/12/06 09:01:10;;;;;;;12.73;4.60;;;8.80;84.90;;;;;;5016592;28;20041;-72
2021/12/06 09:03:36;;;;;;;15.60;4.22;;;8.80;85.00;;;;;;5015370;28;20065;-73
2021/12/06 09:06:06;;;;;;;13.65;5.10;;;8.80;84.50;;;;;;5016677;28;20061;-73
2021/12/06 09:08:33;;;;;;;11.10;4.38;;;8.90;84.90;;;;;;5015611;28;20034;-71
2021/12/06 09:10:59;;;;;;;10.52;3.95;;;8.90;84.50;;;;;;5016765;28;20026;-71
2021/12/06 09:13:29;;;;;;;9.50;4.95;;;8.90;84.00;;;;;;5016617;28;20478;-72
2021/12/06 09:15:59;;;;;;;10.57;4.55;;;9.00;84.30;;;;;;5016681;28;20112;-72
2021/12/06 09:18:26;;;;;;;11.93;4.55;;;9.00;83.70;;;;;;5016063;28;20033;-72
2021/12/06 09:20:53;;;;;;;18.33;4.32;;;9.00;84.00;;;;;;5015937;28;20050;-69
2021/12/06 09:23:19;;;;;;;12.80;4.40;;;9.00;83.30;;;;;;5015865;28;20479;-71
2021/12/06 09:25:47;;;;;;;13.05;3.95;;;9.10;83.30;;;;;;5016034;28;20072;-72
2021/12/06 09:28:16;;;;;;;13.02;4.40;;;9.10;83.10;;;;;;5015944;28;20128;-72
2021/12/06 09:30:42;;;;;;;9.13;3.63;;;9.10;83.20;;;;;;4996320;28;20049;-74
2021/12/06 09:33:10;;;;;;;9.43;3.30;;;9.10;82.70;;;;;;4996170;28;20026;-74
2021/12/06 09:35:40;;;;;;;10.43;3.38;;;9.20;82.50;;;;;;4995043;28;20114;-73
2021/12/06 09:38:07;;;;;;;14.48;4.22;;;9.20;82.00;;;;;;4995014;28;20097;-75
2021/12/06 09:40:35;;;;;;;8.20;3.63;;;9.20;82.00;;;;;;4995646;28;20078;-70
2021/12/06 09:43:03;;;;;;;8.32;3.47;;;9.20;81.90;;;;;;4995931;28;20056;-71
2021/12/06 09:45:31;;;;;;;9.25;4.00;;;9.20;81.90;;;;;;4994565;28;20041;-73
2021/12/06 09:47:59;;;;;;;8.15;3.67;;;9.20;81.90;;;;;;4996019;28;20109;-70
2021/12/06 09:50:36;;;;;;;12.02;3.65;;;9.20;82.30;;;;;;4996285;28;20450;-72
2021/12/06 09:53:04;;;;;;;12.43;3.53;;;9.20;82.00;;;;;;4995927;28;20030;-71
2021/12/06 09:55:32;;;;;;;13.40;3.45;;;9.20;81.70;;;;;;4995766;28;20030;-73
2021/12/06 09:57:59;;;;;;;10.25;4.25;;;9.20;81.40;;;;;;4994781;28;20057;-74
2021/12/06 10:00:28;;;;;;;14.57;4.88;;;9.30;81.50;;;;;;4995949;28;20058;-70
2021/12/06 10:02:54;;;;;;;14.40;4.13;;;9.40;81.30;;;;;;4996360;28;20478;-71
2021/12/06 10:05:26;;;;;;;7.65;3.75;;;9.50;81.00;;;;;;4995081;28;20031;-71
2021/12/06 10:07:53;;;;;;;17.67;4.30;;;9.60;80.50;;;;;;4999503;28;20053;-70
2021/12/06 10:10:21;;;;;;;11.80;4.10;;;9.60;79.80;;;;;;4998435;28;20371;-72
2021/12/06 10:12:51;;;;;;;12.18;4.05;;;9.60;80.40;;;;;;4995297;28;20160;-71
2021/12/06 10:15:18;;;;;;;10.32;3.50;;;9.60;80.00;;;;;;4996319;28;20105;-74
2021/12/06 10:17:43;;;;;;;12.27;3.67;;;9.70;79.90;;;;;;4994812;28;20448;-72
2021/12/06 10:20:10;;;;;;;11.60;3.75;;;9.60;79.60;;;;;;4996025;28;20091;-74
2021/12/06 10:22:36;;;;;;;12.63;4.20;;;9.60;79.70;;;;;;4995754;28;20038;-73
2021/12/06 10:25:04;;;;;;;9.10;3.88;;;9.70;79.60;;;;;;4994562;28;20109;-75
2021/12/06 10:27:30;;;;;;;10.52;3.70;;;9.70;79.80;;;;;;4995365;28;20023;-71
2021/12/06 10:30:01;;;;;;;11.75;4.00;;;9.70;79.10;;;;;;5022384;28;20038;-73
2021/12/06 10:32:32;;;;;;;10.52;3.78;;;9.60;79.50;;;;;;5034759;28;20523;-76
2021/12/06 10:35:02;;;;;;;7.85;3.75;;;9.60;79.30;;;;;;5034795;28;20211;-71
2021/12/06 10:37:45;;;;;;;10.95;3.72;;;9.60;79.30;;;;;;5016926;28;20030;-72
2021/12/06 10:40:15;;;;;;;8.88;3.50;;;9.70;78.90;;;;;;5034630;28;20017;-70
2021/12/06 10:42:45;;;;;;;8.82;3.80;;;9.70;78.60;;;;;;5034472;28;20037;-74
2021/12/06 10:45:17;;;;;;;8.30;3.25;;;9.70;78.60;;;;;;5034723;28;20033;-75
2021/12/06 10:48:02;;;;;;;10.13;3.50;;;9.60;77.60;;;;;;5034972;28;20051;-70
2021/12/06 10:50:29;;;;;;;7.13;3.38;;;9.60;78.10;;;;;;5016486;28;20025;-77
2021/12/06 10:52:59;;;;;;;9.88;4.13;;;9.60;77.90;;;;;;5034343;28;20025;-74
2021/12/06 10:55:30;;;;;;;7.93;3.47;;;9.50;78.40;;;;;;5000248;28;20036;-75
2021/12/06 10:58:03;;;;;;;10.95;4.00;;;9.60;78.20;;;;;;5000951;28;20462;-78
2021/12/06 11:00:50;;;;;;;;;;;9.60;78.40;;;;;;5017355;28;20061;-72
2021/12/06 11:03:34;;;;;;;14.70;3.92;;;9.60;77.20;;;;;;5032840;28;19968;-74
2021/12/06 11:06:15;;;;;;;11.55;4.45;;;9.70;78.00;;;;;;5033050;28;20029;-73
2021/12/06 11:08:44;;;;;;;14.77;4.50;;;9.80;78.00;;;;;;5034311;28;20017;-78
2021/12/06 11:11:26;;;;;;;12.05;4.38;;;9.80;77.20;;;;;;5034006;28;20010;-71
2021/12/06 11:13:55;;;;;;;12.23;4.22;;;9.80;76.90;;;;;;5033847;28;20021;-70
2021/12/06 11:16:33;;;;;;;10.50;4.00;;;9.80;76.20;;;;;;5033721;28;20022;-74
2021/12/06 11:19:05;;;;;;;10.57;4.50;;;9.90;76.30;;;;;;5033980;28;20493;-73
2021/12/06 11:21:44;;;;;;;13.85;4.03;;;9.90;76.60;;;;;;5033598;28;20047;-70
2021/12/06 11:24:12;;;;;;;12.80;4.63;;;10.00;75.30;;;;;;5033455;28;20100;-71
2021/12/06 11:26:43;;;;;;;13.40;4.10;;;10.00;74.30;;;;;;5033451;28;20149;-71
2021/12/06 11:29:21;;;;;;;10.65;4.30;;;10.10;74.70;;;;;;5033557;28;20049;-78
2021/12/06 11:32:02;;;;;;;15.88;4.63;;;10.10;75.10;;;;;;5033223;28;20545;-71
2021/12/06 11:34:51;;;;;;;6.95;4.13;;;10.20;74.80;;;;;;5033034;28;20057;-72
2021/12/06 11:37:26;;;;;;;14.93;4.78;;;10.20;74.80;;;;;;5032672;28;20025;-77
2021/12/06 11:40:21;;;;;;;9.60;4.30;;;10.20;74.30;;;;;;5033029;28;20028;-70
2021/12/06 11:42:59;;;;;;;11.07;4.68;;;10.30;74.60;;;;;;5032972;28;20037;-76
2021/12/06 11:45:48;;;;;;;11.07;4.68;;;10.30;74.30;;;;;;5033016;28;20488;-77
2021/12/06 11:48:19;;;;;;;14.43;4.35;;;10.30;72.90;;;;;;5015083;28;20025;-70
2021/12/06 11:50:48;;;;;;;8.90;4.60;;;10.40;73.40;;;;;;5015067;28;20052;-70
2021/12/06 11:53:16;;;;;;;9.43;4.10;;;10.50;73.50;;;;;;5033260;28;20028;-71
2021/12/06 11:55:52;;;;;;;7.90;4.05;;;10.60;73.00;;;;;;5033063;28;20018;-74
2021/12/06 11:58:34;;;;;;;9.73;4.10;;;10.60;72.90;;;;;;5032958;28;20033;-71
2021/12/06 12:01:16;;;;;;;9.65;4.32;;;10.50;72.50;;;;;;5032906;28;20135;-70
2021/12/06 12:03:49;;;;;;;6.93;3.97;;;10.60;72.70;;;;;;5032863;28;20436;-79
2021/12/06 12:06:26;;;;;;;9.25;4.50;;;10.60;72.40;;;;;;5032628;28;20150;-73
2021/12/06 12:09:28;;;;;;;8.43;4.03;;;10.60;72.30;;;;;;5032826;28;20391;-78
2021/12/06 12:12:22;;;;;;;11.98;4.53;;;10.60;72.40;;;;;;5032813;28;20029;-71
2021/12/06 12:14:55;;;;;;;10.20;4.88;;;10.70;71.90;;;;;;5015088;28;20025;-74
2021/12/06 12:17:30;;;;;;;9.45;5.15;;;10.80;71.60;;;;;;5032488;28;20470;-78
2021/12/06 12:19:59;;;;;;;14.35;5.78;;;10.80;71.70;;;;;;5015037;28;20029;-72
2021/12/06 12:22:26;;;;;;;11.25;4.25;;;10.90;71.50;;;;;;5032425;28;20041;-70
2021/12/06 12:24:58;;;;;;;8.25;3.97;;;10.90;71.50;;;;;;5032895;28;20501;-75
2021/12/06 12:27:32;;;;;;;8.32;4.35;;;10.80;70.40;;;;;;5032942;28;20532;-71
2021/12/06 12:29:59;;;;;;;7.97;4.28;;;10.70;70.80;;;;;;5037024;28;20053;-70
2021/12/06 12:32:27;;;;;;;9.02;4.38;;;10.70;70.60;;;;;;5036687;28;20021;-74
2021/12/06 12:34:55;;;;;;;8.40;4.20;;;10.80;71.20;;;;;;5018241;28;20033;-75
2021/12/06 12:37:22;;;;;;;7.70;3.95;;;10.70;70.30;;;;;;5036460;28;20366;-74
2021/12/06 12:40:10;;;;;;;9.13;4.13;;;10.70;70.20;;;;;;5016751;28;20125;-78
2021/12/06 12:42:37;;;;;;;8.38;3.72;;;10.80;70.10;;;;;;5016063;28;20455;-73
2021/12/06 12:45:06;;;;;;;8.60;3.75;;;10.80;69.80;;;;;;5034069;28;20044;-75
2021/12/06 12:47:34;;;;;;;10.55;4.00;;;10.90;69.60;;;;;;5033111;28;20129;-76
2021/12/06 12:50:10;;;;;;;7.85;3.70;;;10.90;69.20;;;;;;5032988;28;20426;-73
2021/12/06 12:52:48;;;;;;;8.32;3.83;;;10.90;68.90;;;;;;5016382;28;20034;-71
2021/12/06 12:55:35;;;;;;;11.18;4.03;;;10.90;68.70;;;;;;5033346;28;20463;-72
2021/12/06 12:58:14;;;;;;;11.07;3.67;;;11.00;68.40;;;;;;5032593;28;20025;-71
2021/12/06 13:00:58;;;;;;;7.53;3.67;;;10.90;67.80;;;;;;5014445;28;20101;-71
2021/12/06 13:03:43;;;;;;;9.48;3.42;;;10.90;67.50;;;;;;5032530;28;20037;-75
2021/12/06 13:06:17;;;;;;;8.55;3.75;;;10.90;67.80;;;;;;5032517;28;20037;-72
2021/12/06 13:08:48;;;;;;;8.60;3.08;;;10.90;67.50;;;;;;5032981;28;20536;-74
2021/12/06 13:11:14;;;;;;;6.95;3.20;;;10.90;68.30;;;;;;5032627;28;20057;-77
2021/12/06 13:13:47;;;;;;;8.50;3.03;;;10.90;68.40;;;;;;5032288;28;20052;-74
2021/12/06 13:16:35;;;;;;;6.93;2.72;;;10.90;68.20;;;;;;5014880;28;20022;-71
2021/12/06 13:22:02;;;;;;;6.40;3.10;;;10.90;68.30;;;;;;5032423;28;20079;-71
2021/12/06 13:24:33;;;;;;;6.40;3.08;;;10.90;68.20;;;;;;5032426;28;20037;-75